createdAt,value
2023-03-12T00:00:48.487Z,97980.91
2023-03-12T00:03:17.949Z,97976.75
2023-03-12T00:05:44.738Z,97975.81
2023-03-12T00:08:11.544Z,97975.41
2023-03-12T00:10:38.701Z,97974.50
2023-03-12T00:13:05.236Z,97974.78
2023-03-12T00:15:32.030Z,97985.16
2023-03-12T00:17:58.583Z,97982.38
2023-03-12T00:20:26.420Z,97982.72
2023-03-12T00:22:52.978Z,97986.16
2023-03-12T00:25:21.243Z,97991.34
2023-03-12T00:27:48.223Z,97981.06
2023-03-12T00:30:14.816Z,97985.59
2023-03-12T00:32:43.827Z,97982.28
2023-03-12T00:35:10.609Z,97980.41
2023-03-12T00:37:37.701Z,97977.09
2023-03-12T00:40:10.994Z,97978.19
2023-03-12T00:42:38.161Z,97980.91
2023-03-12T00:45:05.218Z,97977.66
2023-03-12T00:47:32.642Z,97978.31
2023-03-12T00:49:59.167Z,97969.38
2023-03-12T00:52:25.710Z,97969.38
2023-03-12T00:54:52.381Z,97963.09
2023-03-12T00:57:18.958Z,97966.13
2023-03-12T00:59:46.631Z,97965.22
2023-03-12T01:02:13.290Z,97957.50
2023-03-12T01:04:39.868Z,97961.50
2023-03-12T01:07:06.538Z,97963.28
2023-03-12T01:09:33.173Z,97965.03
2023-03-12T01:11:59.712Z,97972.63
2023-03-12T01:14:26.798Z,97965.50
2023-03-12T01:16:53.862Z,97967.25
2023-03-12T01:19:20.464Z,97965.22
2023-03-12T01:21:46.976Z,97966.78
2023-03-12T01:24:13.476Z,97961.28
2023-03-12T01:26:40.082Z,97962.03
2023-03-12T01:29:06.854Z,97965.50
2023-03-12T01:31:33.512Z,97970.56
2023-03-12T01:34:00.029Z,97956.28
2023-03-12T01:36:28.402Z,97962.13
2023-03-12T01:38:56.327Z,97969.06
2023-03-12T01:41:23.628Z,97968.78
2023-03-12T01:43:50.960Z,97971.59
2023-03-12T01:46:26.719Z,97965.38
2023-03-12T01:48:58.681Z,97967.69
2023-03-12T01:51:27.658Z,97967.28
2023-03-12T01:53:56.037Z,97965.63
2023-03-12T01:56:22.652Z,97971.44
2023-03-12T01:58:51.142Z,97966.25
2023-03-12T02:01:18.076Z,97973.78
2023-03-12T02:03:45.308Z,97968.84
2023-03-12T02:06:13.637Z,97969.19
2023-03-12T02:08:42.170Z,97973.44
2023-03-12T02:11:08.891Z,97972.25
2023-03-12T02:13:36.645Z,97973.28
2023-03-12T02:16:03.618Z,97965.47
2023-03-12T02:18:30.754Z,97962.22
2023-03-12T02:21:01.321Z,97967.13
2023-03-12T02:23:30.607Z,97959.13
2023-03-12T02:25:58.230Z,97961.75
2023-03-12T02:28:26.095Z,97956.34
2023-03-12T02:30:52.882Z,97961.53
2023-03-12T02:33:19.851Z,97964.06
2023-03-12T02:35:47.094Z,97961.34
2023-03-12T02:38:32.950Z,97968.22
2023-03-12T02:41:00.746Z,97966.03
2023-03-12T02:43:27.445Z,97963.56
2023-03-12T02:45:54.486Z,97961.16
2023-03-12T02:48:22.693Z,97958.47
2023-03-12T02:50:49.335Z,97953.28
2023-03-12T02:53:16.066Z,97948.91
2023-03-12T02:55:42.680Z,97956.41
2023-03-12T02:58:09.261Z,97959.75
2023-03-12T03:00:36.894Z,97953.50
2023-03-12T03:03:03.512Z,97943.28
2023-03-12T03:05:30.013Z,97947.66
2023-03-12T03:07:56.526Z,97951.31
2023-03-12T03:10:23.114Z,97954.06
2023-03-12T03:12:50.198Z,97952.00
2023-03-12T03:15:17.247Z,97950.22
2023-03-12T03:17:44.107Z,97946.00
2023-03-12T03:20:12.055Z,97938.22
2023-03-12T03:22:38.773Z,97938.09
2023-03-12T03:25:06.536Z,97938.94
2023-03-12T03:27:33.074Z,97925.63
2023-03-12T03:29:59.726Z,97925.94
2023-03-12T03:32:26.819Z,97923.03
2023-03-12T03:34:53.545Z,97927.53
2023-03-12T03:37:20.054Z,97927.81
2023-03-12T03:39:46.557Z,97933.44
2023-03-12T03:42:13.380Z,97931.28
2023-03-12T03:44:42.624Z,97928.47
2023-03-12T03:47:09.234Z,97926.09
2023-03-12T03:49:35.772Z,97933.28
2023-03-12T03:52:02.604Z,97933.72
2023-03-12T03:54:34.105Z,97932.38
2023-03-12T03:57:01.428Z,97930.41
2023-03-12T03:59:31.340Z,97929.28
2023-03-12T04:01:58.217Z,97934.38
2023-03-12T04:04:25.357Z,97933.69
2023-03-12T04:06:52.060Z,97930.59
2023-03-12T04:09:18.784Z,97921.97
2023-03-12T04:11:45.530Z,97920.91
2023-03-12T04:14:13.426Z,97910.03
2023-03-12T04:16:43.555Z,97913.84
2023-03-12T04:19:10.170Z,97917.53
2023-03-12T04:21:39.569Z,97920.88
2023-03-12T04:24:07.057Z,97915.25
2023-03-12T04:26:35.009Z,97910.69
2023-03-12T04:29:02.899Z,97924.31
2023-03-12T04:31:29.934Z,97915.25
2023-03-12T04:33:56.755Z,97928.78
2023-03-12T04:36:24.730Z,97921.50
2023-03-12T04:38:52.687Z,97930.88
2023-03-12T04:41:23.863Z,97928.41
2023-03-12T04:44:02.591Z,97929.31
2023-03-12T04:46:29.450Z,97936.06
2023-03-12T04:48:56.079Z,97926.09
2023-03-12T04:51:22.579Z,97920.25
2023-03-12T04:53:49.216Z,97917.44
2023-03-12T04:56:15.962Z,97921.72
2023-03-12T04:58:43.555Z,97922.25
2023-03-12T05:01:20.054Z,97926.28
2023-03-12T05:03:46.650Z,97927.25
2023-03-12T05:06:13.609Z,97920.16
2023-03-12T05:08:40.318Z,97917.13
2023-03-12T05:11:07.307Z,97917.03
2023-03-12T05:13:33.914Z,97914.31
2023-03-12T05:16:00.868Z,97916.69
2023-03-12T05:18:28.073Z,97916.31
2023-03-12T05:20:58.664Z,97910.66
2023-03-12T05:23:26.061Z,97910.56
2023-03-12T05:25:52.648Z,97915.66
2023-03-12T05:28:20.291Z,97923.38
2023-03-12T05:30:47.085Z,97909.41
2023-03-12T05:33:13.797Z,97909.22
2023-03-12T05:35:40.395Z,97909.91
2023-03-12T05:38:06.962Z,97913.97
2023-03-12T05:40:33.834Z,97917.41
2023-03-12T05:43:00.412Z,97921.34
2023-03-12T05:45:27.268Z,97924.59
2023-03-12T05:47:56.228Z,97922.81
2023-03-12T05:50:22.810Z,97923.75
2023-03-12T05:52:49.509Z,97916.66
2023-03-12T05:55:16.197Z,97921.13
2023-03-12T05:57:43.188Z,97924.59
2023-03-12T06:00:10.409Z,97930.63
2023-03-12T06:02:50.591Z,97933.97
2023-03-12T06:05:17.181Z,97935.63
2023-03-12T06:07:43.890Z,97939.28
2023-03-12T06:10:10.873Z,97928.94
2023-03-12T06:12:37.450Z,97926.16
2023-03-12T06:15:04.688Z,97920.59
2023-03-12T06:17:32.480Z,97925.72
2023-03-12T06:19:59.234Z,97920.00
2023-03-12T06:22:25.892Z,97911.69
2023-03-12T06:24:52.488Z,97922.53
2023-03-12T06:27:19.318Z,97913.25
2023-03-12T06:29:47.330Z,97918.03
2023-03-12T06:32:14.314Z,97924.69
2023-03-12T06:34:41.063Z,97919.50
2023-03-12T06:37:07.572Z,97920.94
2023-03-12T06:39:34.662Z,97924.09
2023-03-12T06:42:01.199Z,97922.19
2023-03-12T06:44:27.785Z,97916.44
2023-03-12T06:46:54.343Z,97907.72
2023-03-12T06:49:20.934Z,97904.75
2023-03-12T06:51:47.734Z,97904.06
2023-03-12T06:54:14.323Z,97903.31
2023-03-12T06:56:40.885Z,97899.75
2023-03-12T06:59:07.526Z,97899.34
2023-03-12T07:01:34.052Z,97899.94
2023-03-12T07:04:00.647Z,97895.47
2023-03-12T07:06:27.328Z,97899.41
2023-03-12T07:08:54.069Z,97901.69
2023-03-12T07:11:20.624Z,97902.13
2023-03-12T07:13:47.228Z,97908.38
2023-03-12T07:16:14.087Z,97910.97
2023-03-12T07:18:40.720Z,97906.31
2023-03-12T07:21:07.359Z,97909.13
2023-03-12T07:23:33.910Z,97904.88
2023-03-12T07:26:00.456Z,97910.81
2023-03-12T07:28:27.061Z,97917.25
2023-03-12T07:30:53.591Z,97917.75
2023-03-12T07:33:21.254Z,97920.78
2023-03-12T07:35:50.965Z,97919.59
2023-03-12T07:38:18.113Z,97923.53
2023-03-12T07:40:44.959Z,97916.13
2023-03-12T07:43:12.836Z,97920.78
2023-03-12T07:45:40.999Z,97924.91
2023-03-12T07:48:07.733Z,97924.09
2023-03-12T07:50:34.720Z,97923.22
2023-03-12T07:53:01.903Z,97927.16
2023-03-12T07:55:28.561Z,97912.47
2023-03-12T07:57:58.534Z,97920.56
2023-03-12T08:00:25.956Z,97916.75
2023-03-12T08:02:53.232Z,97914.06
2023-03-12T08:05:20.134Z,97909.19
2023-03-12T08:07:46.780Z,97915.84
2023-03-12T08:10:13.476Z,97922.97
2023-03-12T08:12:40.117Z,97926.78
2023-03-12T08:15:08.405Z,97929.66
2023-03-12T08:17:35.295Z,97928.25
2023-03-12T08:20:01.952Z,97926.22
2023-03-12T08:22:28.629Z,97919.94
2023-03-12T08:24:55.200Z,97915.31
2023-03-12T08:27:21.724Z,97914.69
2023-03-12T08:29:48.240Z,97913.41
2023-03-12T08:32:14.989Z,97923.84
2023-03-12T08:34:41.611Z,97926.81
2023-03-12T08:37:08.207Z,97928.25
2023-03-12T08:39:34.799Z,97933.13
2023-03-12T08:42:01.390Z,97935.50
2023-03-12T08:44:27.962Z,97933.72
2023-03-12T08:46:54.614Z,97931.72
2023-03-12T08:49:21.408Z,97935.16
2023-03-12T08:51:48.154Z,97934.06
2023-03-12T08:54:14.712Z,97937.50
2023-03-12T08:56:43.313Z,97938.81
2023-03-12T08:59:13.128Z,97937.28
2023-03-12T09:01:41.789Z,97928.59
2023-03-12T09:04:10.133Z,97929.06
2023-03-12T09:06:36.687Z,97924.50
2023-03-12T09:09:05.968Z,97922.81
2023-03-12T09:11:33.298Z,97917.91
2023-03-12T09:14:39.513Z,97920.00
2023-03-12T09:16:49.993Z,97914.97
2023-03-12T09:19:16.721Z,97914.28
2023-03-12T09:21:43.797Z,97913.75
2023-03-12T09:24:10.623Z,97925.75
2023-03-12T09:26:37.199Z,97925.16
2023-03-12T09:29:03.704Z,97927.28
2023-03-12T09:31:30.422Z,97933.34
2023-03-12T09:33:57.045Z,97932.78
2023-03-12T09:36:23.692Z,97929.94
2023-03-12T09:38:50.269Z,97926.19
2023-03-12T09:41:27.123Z,97931.28
2023-03-12T09:43:58.478Z,97935.88
2023-03-12T09:46:37.781Z,97935.19
2023-03-12T09:49:06.012Z,97931.72
2023-03-12T09:51:36.436Z,97933.72
2023-03-12T09:54:03.978Z,97931.44
2023-03-12T09:56:30.541Z,97931.56
2023-03-12T09:58:57.195Z,97932.50
2023-03-12T10:01:26.407Z,97927.03
2023-03-12T10:04:11.711Z,97935.31
2023-03-12T10:06:53.424Z,97933.59
2023-03-12T10:09:30.063Z,97940.28
2023-03-12T10:12:19.325Z,97936.78
2023-03-12T10:15:04.605Z,97924.38
2023-03-12T10:17:40.499Z,97934.13
2023-03-12T10:20:22.772Z,97933.72
2023-03-12T10:23:09.315Z,97935.06
2023-03-12T10:25:46.440Z,97944.22
2023-03-12T10:28:20.803Z,97941.13
2023-03-12T10:30:57.527Z,97934.94
2023-03-12T10:33:24.982Z,97933.38
2023-03-12T10:35:51.582Z,97934.31
2023-03-12T10:38:19.789Z,97931.06
2023-03-12T10:40:46.469Z,97942.66
2023-03-12T10:43:13.014Z,97939.44
2023-03-12T10:46:05.618Z,97953.41
2023-03-12T10:48:32.157Z,97957.31
2023-03-12T10:51:04.959Z,97961.47
2023-03-12T10:53:32.676Z,97967.03
2023-03-12T10:56:00.281Z,97966.34
2023-03-12T10:58:30.901Z,97975.34
2023-03-12T11:00:58.595Z,97972.88
2023-03-12T11:03:25.952Z,97975.78
2023-03-12T11:05:53.738Z,97968.75
2023-03-12T11:08:35.277Z,97980.31
2023-03-12T11:11:02.208Z,97976.34
2023-03-12T11:13:38.901Z,97977.88
2023-03-12T11:16:17.849Z,97980.50
2023-03-12T11:19:03.814Z,97980.91
2023-03-12T11:21:31.491Z,97978.91
2023-03-12T11:23:58.039Z,97981.31
2023-03-12T11:26:25.680Z,97982.59
2023-03-12T11:28:53.069Z,97974.41
2023-03-12T11:31:19.652Z,97970.88
2023-03-12T11:33:46.311Z,97963.66
2023-03-12T11:36:28.675Z,97964.34
2023-03-12T11:39:07.392Z,97962.72
2023-03-12T11:41:33.877Z,97958.25
2023-03-12T11:44:00.362Z,97960.28
2023-03-12T11:46:32.381Z,97964.28
2023-03-12T11:49:02.520Z,97963.28
2023-03-12T11:51:38.037Z,97952.44
2023-03-12T11:54:07.034Z,97952.75
2023-03-12T11:56:37.811Z,97955.53
2023-03-12T11:59:04.378Z,97958.78
2023-03-12T12:01:34.308Z,97959.53
2023-03-12T12:04:04.065Z,97960.44
2023-03-12T12:06:39.659Z,97957.13
2023-03-12T12:09:09.209Z,97967.34
2023-03-12T12:11:54.703Z,97964.16
2023-03-12T12:14:25.570Z,97963.28
2023-03-12T12:16:58.321Z,97956.03
2023-03-12T12:19:24.800Z,97957.28
2023-03-12T12:22:03.498Z,97941.66
2023-03-12T12:24:50.688Z,97958.34
2023-03-12T12:27:21.858Z,97951.19
2023-03-12T12:30:06.827Z,97948.66
2023-03-12T12:32:42.413Z,97937.75
2023-03-12T12:35:20.809Z,97934.06
2023-03-12T12:38:09.388Z,97922.66
2023-03-12T12:40:41.070Z,97923.66
2023-03-12T12:43:10.608Z,97910.91
2023-03-12T12:45:38.730Z,97916.03
2023-03-12T12:48:06.985Z,97909.94
2023-03-12T12:50:35.250Z,97917.38
2023-03-12T12:53:22.002Z,97927.78
2023-03-12T12:56:21.126Z,97925.16
2023-03-12T12:58:53.280Z,97919.53
2023-03-12T13:01:19.947Z,97926.09
2023-03-12T13:03:46.912Z,97919.50
2023-03-12T13:06:13.544Z,97919.66
2023-03-12T13:08:40.134Z,97925.09
2023-03-12T13:11:18.400Z,97921.75
2023-03-12T13:13:49.024Z,97923.94
2023-03-12T13:16:18.667Z,97922.25
2023-03-12T13:19:01.148Z,97916.63
2023-03-12T13:21:39.512Z,97928.31
2023-03-12T13:24:24.205Z,97924.81
2023-03-12T13:26:56.681Z,97932.84
2023-03-12T13:29:28.917Z,97937.91
2023-03-12T13:31:55.956Z,97943.97
2023-03-12T13:34:23.203Z,97939.78
2023-03-12T13:36:53.264Z,97932.13
2023-03-12T13:39:28.857Z,97936.97
2023-03-12T13:41:55.721Z,97927.91
2023-03-12T13:44:38.303Z,97911.88
2023-03-12T13:47:10.950Z,97919.50
2023-03-12T13:49:48.565Z,97922.28
2023-03-12T13:52:19.792Z,97910.56
2023-03-12T13:54:47.551Z,97911.56
2023-03-12T13:57:30.487Z,97902.31
2023-03-12T13:59:57.229Z,97904.66
2023-03-12T14:02:28.046Z,97907.63
2023-03-12T14:04:56.255Z,97894.56
2023-03-12T14:07:42.684Z,97899.16
2023-03-12T14:10:09.244Z,97900.66
2023-03-12T14:12:35.871Z,97913.38
2023-03-12T14:15:08.460Z,97916.06
2023-03-12T14:17:35.043Z,97924.13
2023-03-12T14:20:08.922Z,97926.91
2023-03-12T14:22:43.847Z,97925.41
2023-03-12T14:25:16.084Z,97937.31
2023-03-12T14:27:44.958Z,97929.38
2023-03-12T14:30:12.922Z,97936.97
2023-03-12T14:32:39.559Z,97944.22
2023-03-12T14:35:22.844Z,97942.69
2023-03-12T14:38:05.635Z,97951.06
2023-03-12T14:40:44.498Z,97934.41
2023-03-12T14:43:30.327Z,97937.25
2023-03-12T14:46:01.388Z,97931.34
2023-03-12T14:48:34.994Z,97927.72
2023-03-12T14:51:02.123Z,97932.75
2023-03-12T14:53:30.217Z,97918.84
2023-03-12T14:56:00.273Z,97921.16
2023-03-12T14:58:26.782Z,97926.16
2023-03-12T15:01:00.664Z,97926.94
2023-03-12T15:03:27.928Z,97924.13
2023-03-12T15:05:54.571Z,97921.59
2023-03-12T15:08:21.359Z,97918.63
2023-03-12T15:10:54.033Z,97914.22
2023-03-12T15:13:21.041Z,97927.25
2023-03-12T15:15:48.178Z,97924.47
2023-03-12T15:18:18.770Z,97924.94
2023-03-12T15:20:46.047Z,97914.69
2023-03-12T15:23:13.623Z,97918.41
2023-03-12T15:25:41.878Z,97923.06
2023-03-12T15:28:08.538Z,97916.06
2023-03-12T15:30:35.535Z,97914.13
2023-03-12T15:33:06.476Z,97908.19
2023-03-12T15:35:33.315Z,97908.88
2023-03-12T15:38:00.145Z,97907.72
2023-03-12T15:40:27.792Z,97908.88
2023-03-12T15:42:59.420Z,97911.53
2023-03-12T15:45:28.508Z,97906.56
2023-03-12T15:47:55.069Z,97903.63
2023-03-12T15:50:38.033Z,97904.78
2023-03-12T15:53:06.238Z,97905.44
2023-03-12T15:55:34.266Z,97913.06
2023-03-12T15:58:00.849Z,97921.50
2023-03-12T16:00:27.324Z,97925.81
2023-03-12T16:03:00.548Z,97932.06
2023-03-12T16:05:31.251Z,97915.72
2023-03-12T16:07:57.910Z,97915.25
2023-03-12T16:10:24.905Z,97917.88
2023-03-12T16:12:51.682Z,97913.56
2023-03-12T16:15:21.182Z,97910.09
2023-03-12T16:17:47.732Z,97907.78
2023-03-12T16:20:14.795Z,97910.94
2023-03-12T16:22:43.436Z,97900.34
2023-03-12T16:25:12.018Z,97913.25
2023-03-12T16:27:40.296Z,97902.81
2023-03-12T16:30:07.835Z,97911.59
2023-03-12T16:32:34.693Z,97910.56
2023-03-12T16:35:01.343Z,97906.94
2023-03-12T16:37:28.025Z,97904.59
2023-03-12T16:39:54.667Z,97911.56
2023-03-12T16:42:21.328Z,97919.16
2023-03-12T16:44:47.923Z,97918.97
2023-03-12T16:47:14.734Z,97927.72
2023-03-12T16:49:41.578Z,97918.50
2023-03-12T16:52:18.402Z,97916.53
2023-03-12T16:54:44.922Z,97904.47
2023-03-12T16:57:27.006Z,97914.34
2023-03-12T16:59:54.059Z,97905.44
2023-03-12T17:02:21.405Z,97911.03
2023-03-12T17:04:48.877Z,97913.22
2023-03-12T17:07:15.592Z,97910.91
2023-03-12T17:09:42.146Z,97916.84
2023-03-12T17:12:12.242Z,97918.16
2023-03-12T17:14:38.839Z,97921.28
2023-03-12T17:17:05.396Z,97920.78
2023-03-12T17:19:31.975Z,97917.78
2023-03-12T17:21:58.509Z,97921.38
2023-03-12T17:24:28.054Z,97911.13
2023-03-12T17:26:55.636Z,97919.69
2023-03-12T17:29:22.216Z,97927.91
2023-03-12T17:31:48.750Z,97929.56
2023-03-12T17:34:15.392Z,97929.91
2023-03-12T17:36:42.039Z,97930.50
2023-03-12T17:39:08.597Z,97933.75
2023-03-12T17:41:35.087Z,97937.97
2023-03-12T17:44:03.741Z,97935.94
2023-03-12T17:46:30.868Z,97936.03
2023-03-12T17:48:57.464Z,97937.78
2023-03-12T17:51:24.103Z,97936.44
2023-03-12T17:53:50.607Z,97942.38
2023-03-12T17:56:18.258Z,97941.56
2023-03-12T17:58:45.102Z,97949.94
2023-03-12T18:01:13.171Z,97951.06
2023-03-12T18:03:40.659Z,97948.94
2023-03-12T18:06:07.431Z,97946.16
2023-03-12T18:08:33.948Z,97946.47
2023-03-12T18:11:01.745Z,97953.56
2023-03-12T18:13:28.483Z,97955.66
2023-03-12T18:15:56.137Z,97954.47
2023-03-12T18:18:23.033Z,97959.06
2023-03-12T18:20:49.580Z,97956.41
2023-03-12T18:23:16.431Z,97959.06
2023-03-12T18:25:42.964Z,97954.78
2023-03-12T18:28:09.475Z,97957.41
2023-03-12T18:30:36.089Z,97962.13
2023-03-12T18:33:02.647Z,97967.72
2023-03-12T18:35:30.563Z,97968.47
2023-03-12T18:37:57.548Z,97965.84
2023-03-12T18:40:24.122Z,97970.44
2023-03-12T18:42:50.700Z,97969.44
2023-03-12T18:45:17.551Z,97972.94
2023-03-12T18:47:45.376Z,97979.03
2023-03-12T18:50:12.327Z,97983.47
2023-03-12T18:52:38.848Z,97979.72
2023-03-12T18:55:05.524Z,97977.91
2023-03-12T18:57:32.036Z,97979.97
2023-03-12T18:59:59.508Z,97967.78
2023-03-12T19:02:26.097Z,97979.31
2023-03-12T19:04:55.504Z,97967.94
2023-03-12T19:07:22.692Z,97974.03
2023-03-12T19:09:49.244Z,97962.97
2023-03-12T19:12:15.778Z,97971.69
2023-03-12T19:14:42.266Z,97971.03
2023-03-12T19:17:08.793Z,97970.38
2023-03-12T19:19:35.308Z,97977.22
2023-03-12T19:22:01.829Z,97979.16
2023-03-12T19:24:28.452Z,97982.09
2023-03-12T19:26:55.417Z,97979.09
2023-03-12T19:29:21.948Z,97982.16
2023-03-12T19:31:48.604Z,97979.84
2023-03-12T19:34:17.238Z,97988.56
2023-03-12T19:36:43.890Z,97980.34
2023-03-12T19:39:20.532Z,97978.69
2023-03-12T19:41:49.126Z,97979.97
2023-03-12T19:44:15.646Z,97977.34
2023-03-12T19:46:43.318Z,97981.66
2023-03-12T19:49:09.880Z,97979.31
2023-03-12T19:51:36.458Z,97976.59
2023-03-12T19:54:03.696Z,97994.34
2023-03-12T19:56:32.278Z,97999.75
2023-03-12T19:58:58.896Z,97996.00
2023-03-12T20:01:25.671Z,97992.22
2023-03-12T20:03:52.202Z,97994.34
2023-03-12T20:06:18.781Z,97994.03
2023-03-12T20:08:45.785Z,97988.47
2023-03-12T20:11:12.318Z,97989.84
2023-03-12T20:13:38.899Z,97985.22
2023-03-12T20:16:06.836Z,97988.72
2023-03-12T20:18:33.493Z,97987.28
2023-03-12T20:21:00.132Z,97993.53
2023-03-12T20:23:26.703Z,97993.38
2023-03-12T20:25:53.626Z,97991.75
2023-03-12T20:28:20.227Z,97987.59
2023-03-12T20:30:46.789Z,97986.47
2023-03-12T20:33:14.613Z,97986.31
2023-03-12T20:35:43.811Z,97993.59
2023-03-12T20:38:12.968Z,97990.38
2023-03-12T20:40:39.446Z,97989.09
2023-03-12T20:43:06.105Z,97990.28
2023-03-12T20:45:32.805Z,97990.00
2023-03-12T20:47:59.472Z,97995.94
2023-03-12T20:50:26.358Z,97994.28
2023-03-12T20:52:55.963Z,97996.53
2023-03-12T20:55:22.557Z,97997.34
2023-03-12T20:57:53.374Z,97992.59
2023-03-12T21:00:23.073Z,97992.97
2023-03-12T21:02:50.050Z,97997.09
2023-03-12T21:05:17.565Z,97995.47
2023-03-12T21:07:44.430Z,97991.38
2023-03-12T21:10:11.805Z,97992.25
2023-03-12T21:12:39.764Z,97988.13
2023-03-12T21:15:10.200Z,97990.75
2023-03-12T21:17:37.837Z,97988.28
2023-03-12T21:20:05.203Z,97982.41
2023-03-12T21:22:32.434Z,97989.31
2023-03-12T21:24:58.979Z,97993.47
2023-03-12T21:27:29.492Z,97990.75
2023-03-12T21:30:01.034Z,97993.94
2023-03-12T21:32:27.623Z,97987.66
2023-03-12T21:34:54.168Z,97993.81
2023-03-12T21:37:20.680Z,97989.22
2023-03-12T21:39:47.233Z,97982.91
2023-03-12T21:42:13.762Z,97980.06
2023-03-12T21:44:40.382Z,97984.53
2023-03-12T21:47:07.144Z,97973.81
2023-03-12T21:49:36.849Z,97970.50
2023-03-12T21:52:06.663Z,97969.91
2023-03-12T21:54:34.324Z,97972.84
2023-03-12T21:57:02.827Z,97963.22
2023-03-12T21:59:29.979Z,97962.28
2023-03-12T22:01:56.757Z,97963.22
2023-03-12T22:04:23.811Z,97961.03
2023-03-12T22:06:50.654Z,97963.66
2023-03-12T22:09:17.450Z,97967.63
2023-03-12T22:11:43.938Z,97968.94
2023-03-12T22:14:10.559Z,97966.66
2023-03-12T22:16:37.067Z,97956.19
2023-03-12T22:19:03.762Z,97960.41
2023-03-12T22:21:30.267Z,97952.28
2023-03-12T22:23:57.425Z,97945.66
2023-03-12T22:26:25.154Z,97940.00
2023-03-12T22:28:52.483Z,97931.88
2023-03-12T22:31:19.418Z,97930.66
2023-03-12T22:33:46.056Z,97935.13
2023-03-12T22:36:13.592Z,97926.84
2023-03-12T22:38:40.163Z,97916.44
2023-03-12T22:41:13.709Z,97912.00
2023-03-12T22:43:40.298Z,97910.66
2023-03-12T22:46:06.879Z,97898.06
2023-03-12T22:48:33.482Z,97900.56
2023-03-12T22:51:00.080Z,97902.38
2023-03-12T22:53:26.655Z,97897.03
2023-03-12T22:55:59.872Z,97902.28
2023-03-12T22:58:26.604Z,97890.25
2023-03-12T23:01:02.818Z,97880.69
2023-03-12T23:03:29.755Z,97878.03
2023-03-12T23:05:56.351Z,97875.56
2023-03-12T23:08:22.902Z,97866.31
2023-03-12T23:10:59.868Z,97872.25
2023-03-12T23:13:26.964Z,97871.44
2023-03-12T23:15:53.515Z,97872.41
2023-03-12T23:18:20.098Z,97871.56
2023-03-12T23:20:46.780Z,97878.66
2023-03-12T23:23:15.665Z,97883.09
2023-03-12T23:25:42.160Z,97864.13
2023-03-12T23:28:08.722Z,97861.78
2023-03-12T23:30:35.592Z,97865.25
2023-03-12T23:33:03.496Z,97860.13
2023-03-12T23:35:31.067Z,97865.25
2023-03-12T23:37:57.776Z,97867.03
2023-03-12T23:40:24.259Z,97873.13
2023-03-12T23:42:51.092Z,97868.34
2023-03-12T23:45:17.607Z,97868.59
2023-03-12T23:47:44.109Z,97865.00
2023-03-12T23:50:11.000Z,97863.63
2023-03-12T23:52:37.489Z,97863.34
2023-03-12T23:55:04.100Z,97860.88
2023-03-12T23:57:30.598Z,97870.66
2023-03-12T23:59:57.394Z,97865.25
